METAR AND TAF INFORMATION

METAR FOR MGGT
ADDS - METARS form results

(0715 UTC 24 July 2021)
Data provider http://aviationweather.gov/metar/data/
 
METAR text: MGGT 240700Z 02008KT CAVOK 16/15 Q1025 A3027
Conditions at: MGGT (GUATEMALA/LA AU , GT) observed 0700 UTC 24 July 2021
Temperature: 16.0°C (61°F)
Dewpoint: 15.0°C (59°F) [RH = 94%]
Pressure (altimeter): 30.27 inches Hg (1025.0 mb)
Winds: from the NNE (20 degrees) at 9 MPH (8 knots; 4.1 m/s)
Visibility: 6 or more miles (10+ km)
Ceiling: ceiling and visibility are OK
Clouds: unknown
Weather: no significant weather observed at this time

 

AIRPORT MAP

 

RUNWAY INFORMATION

Runway 01 Runway length 9800 ft Runway width 196 ft
Runway elevation 4884 ft Runway displaced threshold 0 ft Runway heading 17
Runway 19 Runway length 9800 ft Runway width 196 ft
Runway elevation 4952 ft Runway displaced threshold 722 ft Runway heading 197

 

AIRPORT FREQUENCIES

Type AFIS Name GUATEMALA Frequency 126.9 MHZ
Type APP Name CON Frequency 119.3 MHZ
Type ATIS Name ATIS Frequency 126.5 MHZ
Type CLD Name CLNC DEL Frequency 120.7 MHZ
Type GND Name GND Frequency 121.9 MHZ
Type TWR Name TWR Frequency 118.1 MHZ

 

AIRPORT NEAR NAVIGATION AIDS

Type VOR-DME Name La Aurora Frequency 114500 KHZ
Type NDB Name Guatemala City Frequency 375 KHZ